sensor_id;sensor_type;location;lat;lon;timestamp;P1;durP1;ratioP1;P2;durP2;ratioP2
36315;SDS011;22343;50.820;2.666;2023-03-05T00:00:01;5.97;;;3.20;;
36315;SDS011;22343;50.820;2.666;2023-03-05T00:02:45;7.97;;;2.90;;
36315;SDS011;22343;50.820;2.666;2023-03-05T00:05:29;7.13;;;3.73;;
36315;SDS011;22343;50.820;2.666;2023-03-05T00:08:14;18.90;;;11.80;;
36315;SDS011;22343;50.820;2.666;2023-03-05T00:11:00;21.30;;;12.70;;
36315;SDS011;22343;50.820;2.666;2023-03-05T00:13:45;12.50;;;7.97;;
36315;SDS011;22343;50.820;2.666;2023-03-05T00:16:30;7.30;;;4.30;;
36315;SDS011;22343;50.820;2.666;2023-03-05T00:19:15;4.20;;;3.23;;
36315;SDS011;22343;50.820;2.666;2023-03-05T00:21:59;4.03;;;3.10;;
36315;SDS011;22343;50.820;2.666;2023-03-05T00:24:43;3.13;;;2.70;;
36315;SDS011;22343;50.820;2.666;2023-03-05T00:27:28;3.03;;;2.73;;
36315;SDS011;22343;50.820;2.666;2023-03-05T00:30:12;3.70;;;2.70;;
36315;SDS011;22343;50.820;2.666;2023-03-05T00:32:57;4.37;;;2.73;;
36315;SDS011;22343;50.820;2.666;2023-03-05T00:35:42;2.80;;;2.50;;
36315;SDS011;22343;50.820;2.666;2023-03-05T00:38:27;4.20;;;3.10;;
36315;SDS011;22343;50.820;2.666;2023-03-05T00:41:11;3.70;;;2.80;;
36315;SDS011;22343;50.820;2.666;2023-03-05T00:43:56;3.73;;;2.67;;
36315;SDS011;22343;50.820;2.666;2023-03-05T00:46:40;4.00;;;2.90;;
36315;SDS011;22343;50.820;2.666;2023-03-05T00:49:25;3.37;;;2.80;;
36315;SDS011;22343;50.820;2.666;2023-03-05T00:52:09;5.07;;;2.90;;
36315;SDS011;22343;50.820;2.666;2023-03-05T00:54:53;4.33;;;2.50;;
36315;SDS011;22343;50.820;2.666;2023-03-05T00:57:38;4.77;;;2.60;;
36315;SDS011;22343;50.820;2.666;2023-03-05T01:00:22;3.73;;;2.13;;
36315;SDS011;22343;50.820;2.666;2023-03-05T01:03:06;5.17;;;2.70;;
36315;SDS011;22343;50.820;2.666;2023-03-05T01:05:51;3.60;;;2.63;;
36315;SDS011;22343;50.820;2.666;2023-03-05T01:08:36;3.93;;;2.67;;
36315;SDS011;22343;50.820;2.666;2023-03-05T01:11:21;5.23;;;2.60;;
36315;SDS011;22343;50.820;2.666;2023-03-05T01:14:05;5.40;;;3.00;;
36315;SDS011;22343;50.820;2.666;2023-03-05T01:16:49;3.30;;;2.70;;
36315;SDS011;22343;50.820;2.666;2023-03-05T01:19:34;4.40;;;2.87;;
36315;SDS011;22343;50.820;2.666;2023-03-05T01:22:18;4.73;;;2.93;;
36315;SDS011;22343;50.820;2.666;2023-03-05T01:25:03;3.70;;;2.90;;
36315;SDS011;22343;50.820;2.666;2023-03-05T01:27:47;4.70;;;3.10;;
36315;SDS011;22343;50.820;2.666;2023-03-05T01:30:32;4.37;;;3.17;;
36315;SDS011;22343;50.820;2.666;2023-03-05T01:33:16;4.67;;;3.20;;
36315;SDS011;22343;50.820;2.666;2023-03-05T01:36:01;9.57;;;5.70;;
36315;SDS011;22343;50.820;2.666;2023-03-05T01:38:45;9.37;;;6.43;;
36315;SDS011;22343;50.820;2.666;2023-03-05T01:41:30;9.80;;;6.30;;
36315;SDS011;22343;50.820;2.666;2023-03-05T01:44:19;6.67;;;4.73;;
36315;SDS011;22343;50.820;2.666;2023-03-05T01:47:04;5.77;;;4.00;;
36315;SDS011;22343;50.820;2.666;2023-03-05T01:49:49;5.67;;;4.03;;
36315;SDS011;22343;50.820;2.666;2023-03-05T01:52:34;4.47;;;3.40;;
36315;SDS011;22343;50.820;2.666;2023-03-05T01:55:21;4.73;;;3.77;;
36315;SDS011;22343;50.820;2.666;2023-03-05T01:58:09;5.67;;;3.80;;
36315;SDS011;22343;50.820;2.666;2023-03-05T02:00:55;5.87;;;3.47;;
36315;SDS011;22343;50.820;2.666;2023-03-05T02:03:40;4.90;;;3.60;;
36315;SDS011;22343;50.820;2.666;2023-03-05T02:06:25;5.37;;;3.57;;
36315;SDS011;22343;50.820;2.666;2023-03-05T02:09:09;4.97;;;3.90;;
36315;SDS011;22343;50.820;2.666;2023-03-05T02:11:54;5.77;;;3.70;;
36315;SDS011;22343;50.820;2.666;2023-03-05T02:14:39;4.73;;;3.70;;
36315;SDS011;22343;50.820;2.666;2023-03-05T02:17:26;3.83;;;3.37;;
36315;SDS011;22343;50.820;2.666;2023-03-05T02:20:15;5.07;;;3.73;;
36315;SDS011;22343;50.820;2.666;2023-03-05T02:23:01;5.40;;;3.70;;
36315;SDS011;22343;50.820;2.666;2023-03-05T02:25:45;5.77;;;3.67;;
36315;SDS011;22343;50.820;2.666;2023-03-05T02:28:34;5.57;;;3.57;;
36315;SDS011;22343;50.820;2.666;2023-03-05T02:31:24;7.07;;;3.47;;
36315;SDS011;22343;50.820;2.666;2023-03-05T02:34:08;6.00;;;3.40;;
36315;SDS011;22343;50.820;2.666;2023-03-05T02:36:52;4.00;;;2.97;;
36315;SDS011;22343;50.820;2.666;2023-03-05T02:39:38;3.13;;;2.60;;
36315;SDS011;22343;50.820;2.666;2023-03-05T02:42:23;2.67;;;2.20;;
36315;SDS011;22343;50.820;2.666;2023-03-05T02:45:07;2.37;;;2.10;;
36315;SDS011;22343;50.820;2.666;2023-03-05T02:47:52;3.20;;;2.10;;
36315;SDS011;22343;50.820;2.666;2023-03-05T02:50:37;5.47;;;2.23;;
36315;SDS011;22343;50.820;2.666;2023-03-05T02:53:23;2.37;;;2.00;;
36315;SDS011;22343;50.820;2.666;2023-03-05T02:56:09;3.00;;;1.70;;
36315;SDS011;22343;50.820;2.666;2023-03-05T02:58:53;4.03;;;1.50;;
36315;SDS011;22343;50.820;2.666;2023-03-05T03:01:37;1.93;;;1.60;;
36315;SDS011;22343;50.820;2.666;2023-03-05T03:04:22;2.80;;;1.50;;
36315;SDS011;22343;50.820;2.666;2023-03-05T03:07:06;2.53;;;1.90;;
36315;SDS011;22343;50.820;2.666;2023-03-05T03:09:51;2.30;;;1.70;;
36315;SDS011;22343;50.820;2.666;2023-03-05T03:12:39;2.10;;;1.63;;
36315;SDS011;22343;50.820;2.666;2023-03-05T03:15:25;2.07;;;1.37;;
36315;SDS011;22343;50.820;2.666;2023-03-05T03:18:09;4.60;;;1.50;;
36315;SDS011;22343;50.820;2.666;2023-03-05T03:20:53;4.17;;;1.67;;
36315;SDS011;22343;50.820;2.666;2023-03-05T03:23:38;3.53;;;1.70;;
36315;SDS011;22343;50.820;2.666;2023-03-05T03:26:22;2.67;;;1.53;;
36315;SDS011;22343;50.820;2.666;2023-03-05T03:29:06;2.63;;;1.40;;
36315;SDS011;22343;50.820;2.666;2023-03-05T03:31:51;2.70;;;1.60;;
36315;SDS011;22343;50.820;2.666;2023-03-05T03:34:35;3.53;;;1.80;;
36315;SDS011;22343;50.820;2.666;2023-03-05T03:37:19;3.77;;;1.80;;
36315;SDS011;22343;50.820;2.666;2023-03-05T03:40:04;1.57;;;1.43;;
36315;SDS011;22343;50.820;2.666;2023-03-05T03:42:52;2.27;;;1.60;;
36315;SDS011;22343;50.820;2.666;2023-03-05T03:45:43;2.27;;;1.50;;
36315;SDS011;22343;50.820;2.666;2023-03-05T03:48:27;2.17;;;1.60;;
36315;SDS011;22343;50.820;2.666;2023-03-05T03:51:12;2.00;;;1.70;;
36315;SDS011;22343;50.820;2.666;2023-03-05T03:53:56;3.30;;;1.70;;
36315;SDS011;22343;50.820;2.666;2023-03-05T03:56:41;4.27;;;2.40;;
36315;SDS011;22343;50.820;2.666;2023-03-05T03:59:25;2.27;;;1.70;;
36315;SDS011;22343;50.820;2.666;2023-03-05T04:02:09;1.63;;;1.53;;
36315;SDS011;22343;50.820;2.666;2023-03-05T04:04:54;4.17;;;1.80;;
36315;SDS011;22343;50.820;2.666;2023-03-05T04:07:38;2.17;;;1.70;;
36315;SDS011;22343;50.820;2.666;2023-03-05T04:10:24;1.90;;;1.70;;
36315;SDS011;22343;50.820;2.666;2023-03-05T04:13:09;3.73;;;1.87;;
36315;SDS011;22343;50.820;2.666;2023-03-05T04:15:53;2.87;;;1.70;;
36315;SDS011;22343;50.820;2.666;2023-03-05T04:18:38;3.13;;;2.10;;
36315;SDS011;22343;50.820;2.666;2023-03-05T04:21:22;2.87;;;2.00;;
36315;SDS011;22343;50.820;2.666;2023-03-05T04:24:06;3.50;;;2.10;;
36315;SDS011;22343;50.820;2.666;2023-03-05T04:26:51;3.77;;;2.20;;
36315;SDS011;22343;50.820;2.666;2023-03-05T04:29:36;3.80;;;2.10;;
36315;SDS011;22343;50.820;2.666;2023-03-05T04:32:20;2.80;;;2.20;;
36315;SDS011;22343;50.820;2.666;2023-03-05T04:35:09;3.50;;;2.30;;
36315;SDS011;22343;50.820;2.666;2023-03-05T04:37:54;2.37;;;2.10;;
36315;SDS011;22343;50.820;2.666;2023-03-05T04:40:38;5.90;;;2.40;;
36315;SDS011;22343;50.820;2.666;2023-03-05T04:43:22;3.77;;;2.60;;
36315;SDS011;22343;50.820;2.666;2023-03-05T04:46:07;3.70;;;2.70;;
36315;SDS011;22343;50.820;2.666;2023-03-05T04:48:51;5.23;;;2.60;;
36315;SDS011;22343;50.820;2.666;2023-03-05T04:51:35;4.60;;;2.77;;
36315;SDS011;22343;50.820;2.666;2023-03-05T04:54:19;4.00;;;2.70;;
36315;SDS011;22343;50.820;2.666;2023-03-05T04:57:04;5.57;;;3.17;;
36315;SDS011;22343;50.820;2.666;2023-03-05T04:59:49;6.20;;;2.93;;
36315;SDS011;22343;50.820;2.666;2023-03-05T05:02:33;6.17;;;3.40;;
36315;SDS011;22343;50.820;2.666;2023-03-05T05:05:19;5.07;;;3.20;;
36315;SDS011;22343;50.820;2.666;2023-03-05T05:08:04;4.90;;;3.33;;
36315;SDS011;22343;50.820;2.666;2023-03-05T05:10:58;4.00;;;3.37;;
36315;SDS011;22343;50.820;2.666;2023-03-05T05:13:47;6.13;;;3.53;;
36315;SDS011;22343;50.820;2.666;2023-03-05T05:16:31;3.77;;;3.10;;
36315;SDS011;22343;50.820;2.666;2023-03-05T05:19:16;4.63;;;3.17;;
36315;SDS011;22343;50.820;2.666;2023-03-05T05:22:00;3.70;;;3.07;;
36315;SDS011;22343;50.820;2.666;2023-03-05T05:24:44;4.90;;;3.40;;
36315;SDS011;22343;50.820;2.666;2023-03-05T05:27:29;6.67;;;3.40;;
36315;SDS011;22343;50.820;2.666;2023-03-05T05:30:14;4.23;;;3.07;;
36315;SDS011;22343;50.820;2.666;2023-03-05T05:32:58;4.30;;;3.30;;
36315;SDS011;22343;50.820;2.666;2023-03-05T05:35:43;3.43;;;2.87;;
36315;SDS011;22343;50.820;2.666;2023-03-05T05:38:27;3.93;;;3.10;;
36315;SDS011;22343;50.820;2.666;2023-03-05T05:41:12;4.13;;;3.17;;
36315;SDS011;22343;50.820;2.666;2023-03-05T05:43:57;4.07;;;3.50;;
36315;SDS011;22343;50.820;2.666;2023-03-05T05:46:42;5.00;;;3.70;;
36315;SDS011;22343;50.820;2.666;2023-03-05T05:49:26;4.93;;;3.70;;
36315;SDS011;22343;50.820;2.666;2023-03-05T05:52:11;4.20;;;3.43;;
36315;SDS011;22343;50.820;2.666;2023-03-05T05:54:56;4.27;;;3.50;;
36315;SDS011;22343;50.820;2.666;2023-03-05T05:57:40;5.67;;;3.50;;
36315;SDS011;22343;50.820;2.666;2023-03-05T06:00:24;4.23;;;3.30;;
36315;SDS011;22343;50.820;2.666;2023-03-05T06:03:09;4.10;;;3.50;;
36315;SDS011;22343;50.820;2.666;2023-03-05T06:05:53;5.20;;;3.80;;
36315;SDS011;22343;50.820;2.666;2023-03-05T06:08:39;4.67;;;3.47;;
36315;SDS011;22343;50.820;2.666;2023-03-05T06:11:23;3.43;;;3.13;;
36315;SDS011;22343;50.820;2.666;2023-03-05T06:14:08;5.37;;;3.43;;
36315;SDS011;22343;50.820;2.666;2023-03-05T06:16:54;5.37;;;3.60;;
36315;SDS011;22343;50.820;2.666;2023-03-05T06:19:38;4.73;;;3.20;;
36315;SDS011;22343;50.820;2.666;2023-03-05T06:22:22;4.70;;;3.50;;
36315;SDS011;22343;50.820;2.666;2023-03-05T06:25:07;23.60;;;14.80;;
36315;SDS011;22343;50.820;2.666;2023-03-05T06:27:52;34.27;;;27.90;;
36315;SDS011;22343;50.820;2.666;2023-03-05T06:30:36;21.03;;;15.97;;
36315;SDS011;22343;50.820;2.666;2023-03-05T06:33:21;8.00;;;5.70;;
36315;SDS011;22343;50.820;2.666;2023-03-05T06:36:06;4.77;;;4.27;;
36315;SDS011;22343;50.820;2.666;2023-03-05T06:38:52;4.70;;;3.67;;
36315;SDS011;22343;50.820;2.666;2023-03-05T06:41:37;7.00;;;3.80;;
36315;SDS011;22343;50.820;2.666;2023-03-05T06:44:21;6.07;;;4.10;;
36315;SDS011;22343;50.820;2.666;2023-03-05T06:47:06;5.60;;;3.87;;
36315;SDS011;22343;50.820;2.666;2023-03-05T06:49:52;6.27;;;4.00;;
36315;SDS011;22343;50.820;2.666;2023-03-05T06:52:36;4.50;;;3.60;;
36315;SDS011;22343;50.820;2.666;2023-03-05T06:55:23;4.57;;;3.60;;
36315;SDS011;22343;50.820;2.666;2023-03-05T06:58:07;4.37;;;3.97;;
36315;SDS011;22343;50.820;2.666;2023-03-05T07:00:52;5.97;;;4.30;;
36315;SDS011;22343;50.820;2.666;2023-03-05T07:03:37;4.60;;;3.93;;
36315;SDS011;22343;50.820;2.666;2023-03-05T07:06:21;5.30;;;3.47;;
36315;SDS011;22343;50.820;2.666;2023-03-05T07:09:06;4.10;;;3.47;;
36315;SDS011;22343;50.820;2.666;2023-03-05T07:11:53;4.83;;;3.37;;
36315;SDS011;22343;50.820;2.666;2023-03-05T07:14:37;4.77;;;3.77;;
36315;SDS011;22343;50.820;2.666;2023-03-05T07:17:22;5.00;;;3.13;;
36315;SDS011;22343;50.820;2.666;2023-03-05T07:20:08;3.90;;;3.13;;
36315;SDS011;22343;50.820;2.666;2023-03-05T07:22:53;6.17;;;4.60;;
36315;SDS011;22343;50.820;2.666;2023-03-05T07:25:38;5.90;;;4.93;;
36315;SDS011;22343;50.820;2.666;2023-03-05T07:28:25;4.43;;;3.80;;
36315;SDS011;22343;50.820;2.666;2023-03-05T07:31:13;5.57;;;3.90;;
36315;SDS011;22343;50.820;2.666;2023-03-05T07:34:04;5.63;;;3.50;;
36315;SDS011;22343;50.820;2.666;2023-03-05T07:36:51;9.73;;;4.40;;
36315;SDS011;22343;50.820;2.666;2023-03-05T07:39:37;5.57;;;4.40;;
36315;SDS011;22343;50.820;2.666;2023-03-05T07:42:22;7.83;;;5.20;;
36315;SDS011;22343;50.820;2.666;2023-03-05T07:45:08;8.27;;;5.23;;
36315;SDS011;22343;50.820;2.666;2023-03-05T07:47:53;8.10;;;5.70;;
36315;SDS011;22343;50.820;2.666;2023-03-05T07:50:39;7.40;;;5.50;;
36315;SDS011;22343;50.820;2.666;2023-03-05T07:53:25;10.50;;;6.73;;
36315;SDS011;22343;50.820;2.666;2023-03-05T07:56:11;9.07;;;6.30;;
36315;SDS011;22343;50.820;2.666;2023-03-05T07:58:58;8.73;;;6.30;;
36315;SDS011;22343;50.820;2.666;2023-03-05T08:01:45;10.37;;;6.90;;
36315;SDS011;22343;50.820;2.666;2023-03-05T08:04:32;8.67;;;6.57;;
36315;SDS011;22343;50.820;2.666;2023-03-05T08:07:18;8.97;;;6.33;;
36315;SDS011;22343;50.820;2.666;2023-03-05T08:10:04;8.63;;;6.43;;
36315;SDS011;22343;50.820;2.666;2023-03-05T08:12:50;10.00;;;6.80;;
36315;SDS011;22343;50.820;2.666;2023-03-05T08:15:37;9.93;;;7.20;;
36315;SDS011;22343;50.820;2.666;2023-03-05T08:18:22;9.93;;;7.03;;
36315;SDS011;22343;50.820;2.666;2023-03-05T08:21:14;10.97;;;7.50;;
36315;SDS011;22343;50.820;2.666;2023-03-05T08:24:05;9.73;;;7.00;;
36315;SDS011;22343;50.820;2.666;2023-03-05T08:27:13;11.23;;;7.67;;
36315;SDS011;22343;50.820;2.666;2023-03-05T08:30:00;12.27;;;8.17;;
36315;SDS011;22343;50.820;2.666;2023-03-05T08:32:48;11.10;;;7.47;;
36315;SDS011;22343;50.820;2.666;2023-03-05T08:35:35;11.63;;;7.30;;
36315;SDS011;22343;50.820;2.666;2023-03-05T08:38:21;11.67;;;8.40;;
36315;SDS011;22343;50.820;2.666;2023-03-05T08:41:07;11.47;;;8.33;;
36315;SDS011;22343;50.820;2.666;2023-03-05T08:43:58;12.10;;;7.77;;
36315;SDS011;22343;50.820;2.666;2023-03-05T08:46:44;11.40;;;7.87;;
36315;SDS011;22343;50.820;2.666;2023-03-05T08:49:29;11.63;;;7.47;;
36315;SDS011;22343;50.820;2.666;2023-03-05T08:52:15;10.73;;;7.67;;
36315;SDS011;22343;50.820;2.666;2023-03-05T08:55:00;9.90;;;7.20;;
36315;SDS011;22343;50.820;2.666;2023-03-05T08:57:46;15.20;;;7.50;;
36315;SDS011;22343;50.820;2.666;2023-03-05T09:00:32;10.47;;;6.87;;
36315;SDS011;22343;50.820;2.666;2023-03-05T09:03:16;9.63;;;6.47;;
36315;SDS011;22343;50.820;2.666;2023-03-05T09:06:04;8.70;;;6.37;;
36315;SDS011;22343;50.820;2.666;2023-03-05T09:08:50;9.23;;;6.33;;
36315;SDS011;22343;50.820;2.666;2023-03-05T09:11:36;8.00;;;5.90;;
36315;SDS011;22343;50.820;2.666;2023-03-05T09:14:23;10.07;;;6.70;;
36315;SDS011;22343;50.820;2.666;2023-03-05T09:17:07;10.80;;;7.83;;
36315;SDS011;22343;50.820;2.666;2023-03-05T09:19:53;11.33;;;9.43;;
36315;SDS011;22343;50.820;2.666;2023-03-05T09:22:38;11.87;;;8.87;;
36315;SDS011;22343;50.820;2.666;2023-03-05T09:25:25;10.10;;;7.37;;
36315;SDS011;22343;50.820;2.666;2023-03-05T09:28:10;9.43;;;6.90;;
36315;SDS011;22343;50.820;2.666;2023-03-05T09:30:55;9.57;;;6.87;;
36315;SDS011;22343;50.820;2.666;2023-03-05T09:33:42;10.13;;;6.60;;
36315;SDS011;22343;50.820;2.666;2023-03-05T09:36:28;7.93;;;6.20;;
36315;SDS011;22343;50.820;2.666;2023-03-05T09:39:15;7.43;;;5.57;;
36315;SDS011;22343;50.820;2.666;2023-03-05T09:42:14;9.63;;;6.20;;
36315;SDS011;22343;50.820;2.666;2023-03-05T09:52:15;12.83;;;8.60;;
36315;SDS011;22343;50.820;2.666;2023-03-05T09:55:03;12.73;;;8.80;;
36315;SDS011;22343;50.820;2.666;2023-03-05T09:57:53;14.23;;;9.53;;
36315;SDS011;22343;50.820;2.666;2023-03-05T10:07:03;15.33;;;10.13;;
36315;SDS011;22343;50.820;2.666;2023-03-05T10:12:55;16.80;;;11.97;;
36315;SDS011;22343;50.820;2.666;2023-03-05T10:22:22;16.87;;;11.47;;
36315;SDS011;22343;50.820;2.666;2023-03-05T10:25:23;17.20;;;11.53;;
36315;SDS011;22343;50.820;2.666;2023-03-05T10:40:54;16.67;;;11.80;;
36315;SDS011;22343;50.820;2.666;2023-03-05T10:46:48;18.60;;;12.87;;
36315;SDS011;22343;50.820;2.666;2023-03-05T10:49:35;19.17;;;12.93;;
36315;SDS011;22343;50.820;2.666;2023-03-05T10:52:30;20.90;;;13.30;;
36315;SDS011;22343;50.820;2.666;2023-03-05T10:55:21;20.23;;;12.20;;
36315;SDS011;22343;50.820;2.666;2023-03-05T10:58:10;22.30;;;15.07;;
36315;SDS011;22343;50.820;2.666;2023-03-05T11:12:46;17.50;;;11.57;;
36315;SDS011;22343;50.820;2.666;2023-03-05T11:15:32;16.17;;;11.63;;
36315;SDS011;22343;50.820;2.666;2023-03-05T11:18:19;18.60;;;11.13;;
36315;SDS011;22343;50.820;2.666;2023-03-05T11:21:17;16.60;;;10.80;;
36315;SDS011;22343;50.820;2.666;2023-03-05T11:24:16;18.30;;;11.23;;
36315;SDS011;22343;50.820;2.666;2023-03-05T11:27:19;16.60;;;11.53;;
36315;SDS011;22343;50.820;2.666;2023-03-05T11:30:35;14.87;;;10.10;;
36315;SDS011;22343;50.820;2.666;2023-03-05T11:39:36;13.63;;;8.93;;
36315;SDS011;22343;50.820;2.666;2023-03-05T11:42:23;14.93;;;9.60;;
36315;SDS011;22343;50.820;2.666;2023-03-05T11:45:14;15.43;;;10.40;;
36315;SDS011;22343;50.820;2.666;2023-03-05T11:48:07;18.70;;;11.87;;
36315;SDS011;22343;50.820;2.666;2023-03-05T11:51:00;21.07;;;13.47;;
36315;SDS011;22343;50.820;2.666;2023-03-05T11:54:05;19.77;;;13.37;;
36315;SDS011;22343;50.820;2.666;2023-03-05T11:56:52;29.67;;;18.33;;
36315;SDS011;22343;50.820;2.666;2023-03-05T11:59:40;31.13;;;20.67;;
36315;SDS011;22343;50.820;2.666;2023-03-05T12:02:25;21.77;;;14.47;;
36315;SDS011;22343;50.820;2.666;2023-03-05T12:05:16;30.70;;;20.60;;
36315;SDS011;22343;50.820;2.666;2023-03-05T12:08:02;31.57;;;22.80;;
36315;SDS011;22343;50.820;2.666;2023-03-05T12:10:51;21.97;;;15.97;;
36315;SDS011;22343;50.820;2.666;2023-03-05T12:13:39;22.20;;;15.97;;
36315;SDS011;22343;50.820;2.666;2023-03-05T12:19:57;25.67;;;16.90;;
36315;SDS011;22343;50.820;2.666;2023-03-05T12:22:54;29.63;;;20.13;;
36315;SDS011;22343;50.820;2.666;2023-03-05T12:31:48;24.40;;;16.27;;
36315;SDS011;22343;50.820;2.666;2023-03-05T12:40:36;21.73;;;15.90;;
36315;SDS011;22343;50.820;2.666;2023-03-05T12:43:27;25.87;;;17.67;;
36315;SDS011;22343;50.820;2.666;2023-03-05T12:46:27;31.80;;;19.57;;
36315;SDS011;22343;50.820;2.666;2023-03-05T12:52:16;24.43;;;18.40;;
36315;SDS011;22343;50.820;2.666;2023-03-05T13:07:05;23.50;;;17.03;;
36315;SDS011;22343;50.820;2.666;2023-03-05T13:09:59;22.23;;;16.63;;
36315;SDS011;22343;50.820;2.666;2023-03-05T13:12:49;24.67;;;17.97;;
36315;SDS011;22343;50.820;2.666;2023-03-05T13:15:37;23.87;;;16.93;;
36315;SDS011;22343;50.820;2.666;2023-03-05T13:18:23;26.03;;;18.13;;
36315;SDS011;22343;50.820;2.666;2023-03-05T13:24:18;29.40;;;18.73;;
36315;SDS011;22343;50.820;2.666;2023-03-05T13:27:17;23.93;;;16.70;;
36315;SDS011;22343;50.820;2.666;2023-03-05T13:30:24;24.17;;;16.37;;
36315;SDS011;22343;50.820;2.666;2023-03-05T13:33:15;23.07;;;15.20;;
36315;SDS011;22343;50.820;2.666;2023-03-05T13:36:03;24.53;;;16.37;;
36315;SDS011;22343;50.820;2.666;2023-03-05T13:38:53;27.47;;;19.20;;
36315;SDS011;22343;50.820;2.666;2023-03-05T13:41:39;25.47;;;17.47;;
36315;SDS011;22343;50.820;2.666;2023-03-05T13:44:24;26.70;;;17.20;;
36315;SDS011;22343;50.820;2.666;2023-03-05T13:47:16;28.47;;;16.93;;
36315;SDS011;22343;50.820;2.666;2023-03-05T13:50:03;23.33;;;16.17;;
36315;SDS011;22343;50.820;2.666;2023-03-05T13:52:51;24.87;;;17.03;;
36315;SDS011;22343;50.820;2.666;2023-03-05T13:55:36;25.17;;;17.50;;
36315;SDS011;22343;50.820;2.666;2023-03-05T14:01:42;24.80;;;16.80;;
36315;SDS011;22343;50.820;2.666;2023-03-05T14:04:35;26.80;;;17.27;;
36315;SDS011;22343;50.820;2.666;2023-03-05T14:10:36;23.57;;;17.57;;
36315;SDS011;22343;50.820;2.666;2023-03-05T14:13:23;25.43;;;17.17;;
36315;SDS011;22343;50.820;2.666;2023-03-05T14:19:35;23.37;;;16.57;;
36315;SDS011;22343;50.820;2.666;2023-03-05T14:28:59;27.07;;;17.73;;
36315;SDS011;22343;50.820;2.666;2023-03-05T14:32:04;28.57;;;18.83;;
36315;SDS011;22343;50.820;2.666;2023-03-05T14:34:51;25.30;;;17.27;;
36315;SDS011;22343;50.820;2.666;2023-03-05T14:37:41;25.27;;;16.97;;
36315;SDS011;22343;50.820;2.666;2023-03-05T14:40:32;26.10;;;18.07;;
36315;SDS011;22343;50.820;2.666;2023-03-05T14:43:18;25.70;;;17.33;;
36315;SDS011;22343;50.820;2.666;2023-03-05T14:46:03;25.07;;;17.33;;
36315;SDS011;22343;50.820;2.666;2023-03-05T14:48:50;25.53;;;16.73;;
36315;SDS011;22343;50.820;2.666;2023-03-05T14:51:40;26.03;;;16.77;;
36315;SDS011;22343;50.820;2.666;2023-03-05T14:54:28;24.03;;;16.57;;
36315;SDS011;22343;50.820;2.666;2023-03-05T14:57:21;24.53;;;17.27;;
36315;SDS011;22343;50.820;2.666;2023-03-05T15:00:19;25.43;;;18.53;;
36315;SDS011;22343;50.820;2.666;2023-03-05T15:03:09;25.17;;;18.23;;
36315;SDS011;22343;50.820;2.666;2023-03-05T15:05:58;22.97;;;17.10;;
36315;SDS011;22343;50.820;2.666;2023-03-05T15:08:43;24.43;;;15.57;;
36315;SDS011;22343;50.820;2.666;2023-03-05T15:11:29;23.00;;;14.93;;
36315;SDS011;22343;50.820;2.666;2023-03-05T15:14:15;21.27;;;15.00;;
36315;SDS011;22343;50.820;2.666;2023-03-05T15:17:01;22.10;;;14.97;;
36315;SDS011;22343;50.820;2.666;2023-03-05T15:19:46;21.13;;;15.60;;
36315;SDS011;22343;50.820;2.666;2023-03-05T15:22:32;22.77;;;16.90;;
36315;SDS011;22343;50.820;2.666;2023-03-05T15:25:18;22.83;;;15.53;;
36315;SDS011;22343;50.820;2.666;2023-03-05T15:28:05;24.57;;;16.33;;
36315;SDS011;22343;50.820;2.666;2023-03-05T15:30:51;22.00;;;14.37;;
36315;SDS011;22343;50.820;2.666;2023-03-05T15:33:37;20.77;;;14.37;;
36315;SDS011;22343;50.820;2.666;2023-03-05T15:36:24;21.03;;;14.87;;
36315;SDS011;22343;50.820;2.666;2023-03-05T15:39:09;22.37;;;15.40;;
36315;SDS011;22343;50.820;2.666;2023-03-05T15:41:54;23.97;;;15.43;;
36315;SDS011;22343;50.820;2.666;2023-03-05T15:44:40;23.07;;;15.30;;
36315;SDS011;22343;50.820;2.666;2023-03-05T15:47:27;24.67;;;15.67;;
36315;SDS011;22343;50.820;2.666;2023-03-05T15:50:12;22.13;;;15.40;;
36315;SDS011;22343;50.820;2.666;2023-03-05T15:52:59;24.53;;;15.37;;
36315;SDS011;22343;50.820;2.666;2023-03-05T15:55:46;21.80;;;15.50;;
36315;SDS011;22343;50.820;2.666;2023-03-05T15:58:32;21.07;;;15.03;;
36315;SDS011;22343;50.820;2.666;2023-03-05T16:01:17;22.83;;;16.03;;
36315;SDS011;22343;50.820;2.666;2023-03-05T16:04:04;25.67;;;16.10;;
36315;SDS011;22343;50.820;2.666;2023-03-05T16:06:50;23.70;;;15.33;;
36315;SDS011;22343;50.820;2.666;2023-03-05T16:09:38;25.13;;;17.43;;
36315;SDS011;22343;50.820;2.666;2023-03-05T16:12:25;24.80;;;16.10;;
36315;SDS011;22343;50.820;2.666;2023-03-05T16:15:14;25.63;;;15.57;;
36315;SDS011;22343;50.820;2.666;2023-03-05T16:18:04;25.27;;;16.93;;
36315;SDS011;22343;50.820;2.666;2023-03-05T16:20:52;26.93;;;16.90;;
36315;SDS011;22343;50.820;2.666;2023-03-05T16:23:38;27.43;;;16.73;;
36315;SDS011;22343;50.820;2.666;2023-03-05T16:26:23;25.57;;;17.57;;
36315;SDS011;22343;50.820;2.666;2023-03-05T16:29:10;24.73;;;16.90;;
36315;SDS011;22343;50.820;2.666;2023-03-05T16:31:56;24.60;;;16.50;;
36315;SDS011;22343;50.820;2.666;2023-03-05T16:34:40;25.00;;;16.97;;
36315;SDS011;22343;50.820;2.666;2023-03-05T16:37:26;26.27;;;16.67;;
36315;SDS011;22343;50.820;2.666;2023-03-05T16:40:11;26.30;;;17.13;;
36315;SDS011;22343;50.820;2.666;2023-03-05T16:42:56;26.23;;;16.80;;
36315;SDS011;22343;50.820;2.666;2023-03-05T16:45:40;27.03;;;17.00;;
36315;SDS011;22343;50.820;2.666;2023-03-05T16:48:33;26.50;;;16.97;;
36315;SDS011;22343;50.820;2.666;2023-03-05T16:51:20;25.90;;;16.53;;
36315;SDS011;22343;50.820;2.666;2023-03-05T16:54:07;24.63;;;16.43;;
36315;SDS011;22343;50.820;2.666;2023-03-05T16:56:52;24.97;;;15.93;;
36315;SDS011;22343;50.820;2.666;2023-03-05T16:59:38;25.90;;;16.37;;
36315;SDS011;22343;50.820;2.666;2023-03-05T17:02:24;22.23;;;15.63;;
36315;SDS011;22343;50.820;2.666;2023-03-05T17:05:08;23.53;;;16.40;;
36315;SDS011;22343;50.820;2.666;2023-03-05T17:07:55;24.97;;;15.97;;
36315;SDS011;22343;50.820;2.666;2023-03-05T17:10:41;25.87;;;16.33;;
36315;SDS011;22343;50.820;2.666;2023-03-05T17:13:29;25.63;;;17.80;;
36315;SDS011;22343;50.820;2.666;2023-03-05T17:16:14;24.07;;;17.77;;
36315;SDS011;22343;50.820;2.666;2023-03-05T17:19:12;26.77;;;18.07;;
36315;SDS011;22343;50.820;2.666;2023-03-05T17:21:59;27.63;;;17.70;;
36315;SDS011;22343;50.820;2.666;2023-03-05T17:24:45;24.63;;;16.90;;
36315;SDS011;22343;50.820;2.666;2023-03-05T17:27:31;25.60;;;17.30;;
36315;SDS011;22343;50.820;2.666;2023-03-05T17:30:15;24.47;;;16.20;;
36315;SDS011;22343;50.820;2.666;2023-03-05T17:33:02;26.23;;;17.07;;
36315;SDS011;22343;50.820;2.666;2023-03-05T17:35:49;25.30;;;16.47;;
36315;SDS011;22343;50.820;2.666;2023-03-05T17:38:33;24.37;;;16.90;;
36315;SDS011;22343;50.820;2.666;2023-03-05T17:41:22;27.27;;;17.00;;
36315;SDS011;22343;50.820;2.666;2023-03-05T17:44:07;24.23;;;17.03;;
36315;SDS011;22343;50.820;2.666;2023-03-05T17:46:52;25.50;;;17.33;;
36315;SDS011;22343;50.820;2.666;2023-03-05T17:49:37;25.50;;;16.90;;
36315;SDS011;22343;50.820;2.666;2023-03-05T17:52:23;25.07;;;16.90;;
36315;SDS011;22343;50.820;2.666;2023-03-05T17:55:08;24.80;;;15.63;;
36315;SDS011;22343;50.820;2.666;2023-03-05T17:57:55;26.27;;;16.87;;
36315;SDS011;22343;50.820;2.666;2023-03-05T18:00:41;25.63;;;16.47;;
36315;SDS011;22343;50.820;2.666;2023-03-05T18:03:28;25.37;;;16.40;;
36315;SDS011;22343;50.820;2.666;2023-03-05T18:06:14;25.60;;;16.97;;
36315;SDS011;22343;50.820;2.666;2023-03-05T18:09:00;26.27;;;16.23;;
36315;SDS011;22343;50.820;2.666;2023-03-05T18:11:46;26.43;;;17.17;;
36315;SDS011;22343;50.820;2.666;2023-03-05T18:14:32;26.50;;;16.67;;
36315;SDS011;22343;50.820;2.666;2023-03-05T18:17:18;25.27;;;16.30;;